createdAt,value
2024-02-26T00:00:00.585Z,9.61
2024-02-26T00:02:45.293Z,9.62
2024-02-26T00:05:26.593Z,9.62
2024-02-26T00:08:08.369Z,9.63
2024-02-26T00:10:49.422Z,9.62
2024-02-26T00:13:30.273Z,9.60
2024-02-26T00:16:21.448Z,9.58
2024-02-26T00:19:09.515Z,9.57
2024-02-26T00:21:50.400Z,9.54
2024-02-26T00:24:31.282Z,9.52
2024-02-26T00:27:12.772Z,9.50
2024-02-26T00:29:54.449Z,9.50
2024-02-26T00:32:42.899Z,9.52
2024-02-26T00:35:38.386Z,9.49
2024-02-26T00:38:27.313Z,9.35
2024-02-26T00:41:02.486Z,9.23
2024-02-26T00:43:50.309Z,9.19
2024-02-26T00:46:26.171Z,9.17
2024-02-26T00:49:14.414Z,9.16
2024-02-26T00:51:49.532Z,9.14
2024-02-26T00:54:37.280Z,9.14
2024-02-26T00:57:12.977Z,9.10
2024-02-26T01:00:03.320Z,9.04
2024-02-26T01:02:40.032Z,9.02
2024-02-26T01:05:28.332Z,9.04
2024-02-26T01:08:04.248Z,9.07
2024-02-26T01:10:52.309Z,9.08
2024-02-26T01:13:34.333Z,9.10
2024-02-26T01:16:29.279Z,9.12
2024-02-26T01:19:17.386Z,9.15
2024-02-26T01:21:58.416Z,9.18
2024-02-26T01:24:39.258Z,9.20
2024-02-26T01:27:27.352Z,9.24
2024-02-26T01:30:01.826Z,9.28
2024-02-26T01:32:50.399Z,9.32
2024-02-26T01:35:32.255Z,9.34
2024-02-26T01:38:20.268Z,9.36
2024-02-26T01:41:01.259Z,9.33
2024-02-26T01:43:42.407Z,9.31
2024-02-26T01:46:24.251Z,9.31
2024-02-26T01:49:05.521Z,9.31
2024-02-26T01:51:48.280Z,9.31
2024-02-26T01:54:29.394Z,9.30
2024-02-26T01:57:11.306Z,9.25
2024-02-26T01:59:59.310Z,9.14
2024-02-26T02:02:34.042Z,9.04
2024-02-26T02:05:26.262Z,8.95
2024-02-26T02:08:00.807Z,8.90
2024-02-26T02:10:49.325Z,8.87
2024-02-26T02:13:23.695Z,8.85
2024-02-26T02:16:11.409Z,8.83
2024-02-26T02:18:45.718Z,8.81
2024-02-26T02:21:33.261Z,8.80
2024-02-26T02:24:14.351Z,8.81
2024-02-26T02:27:02.342Z,8.80
2024-02-26T02:29:36.843Z,8.79
2024-02-26T02:32:25.288Z,8.80
2024-02-26T02:34:59.935Z,8.79
2024-02-26T02:37:48.268Z,8.76
2024-02-26T02:40:22.821Z,8.74
2024-02-26T02:43:12.254Z,8.72
2024-02-26T02:45:53.252Z,8.70
2024-02-26T02:48:34.647Z,8.69
2024-02-26T02:51:17.409Z,8.69
2024-02-26T02:54:05.270Z,8.67
2024-02-26T02:56:39.862Z,8.66
2024-02-26T02:59:28.373Z,8.65
2024-02-26T03:02:03.815Z,8.60
2024-02-26T03:04:45.364Z,8.53
2024-02-26T03:07:27.512Z,8.43
2024-02-26T03:10:09.259Z,8.35
2024-02-26T03:12:50.399Z,8.19
2024-02-26T03:15:31.341Z,8.00
2024-02-26T03:18:12.656Z,7.86
2024-02-26T03:20:54.340Z,7.80
2024-02-26T03:23:44.320Z,7.75
2024-02-26T03:26:39.407Z,7.72
2024-02-26T03:29:34.305Z,7.67
2024-02-26T03:32:22.390Z,7.58
2024-02-26T03:34:57.495Z,7.50
2024-02-26T03:37:45.258Z,7.47
2024-02-26T03:40:20.918Z,7.45
2024-02-26T03:43:10.391Z,7.42
2024-02-26T03:45:45.469Z,7.41
2024-02-26T03:48:34.405Z,7.39
2024-02-26T03:51:16.336Z,7.38
2024-02-26T03:54:11.389Z,7.36
2024-02-26T03:56:59.400Z,7.36
2024-02-26T03:59:41.072Z,7.37
2024-02-26T04:02:22.337Z,7.36
2024-02-26T04:05:10.519Z,7.34
2024-02-26T04:07:52.259Z,7.30
2024-02-26T04:10:33.454Z,7.14
2024-02-26T04:13:15.262Z,6.99
2024-02-26T04:16:03.255Z,6.88
2024-02-26T04:18:38.688Z,6.83
2024-02-26T04:21:20.313Z,6.81
2024-02-26T04:24:09.319Z,6.75
2024-02-26T04:26:57.271Z,6.60
2024-02-26T04:29:32.364Z,6.48
2024-02-26T04:32:20.263Z,6.40
2024-02-26T04:34:55.527Z,6.38
2024-02-26T04:37:43.241Z,6.42
2024-02-26T04:40:18.400Z,6.47
2024-02-26T04:43:06.231Z,6.55
2024-02-26T04:45:41.567Z,6.62
2024-02-26T04:48:29.431Z,6.64
2024-02-26T04:51:04.651Z,6.55
2024-02-26T04:53:52.243Z,6.44
2024-02-26T04:56:36.227Z,6.36
2024-02-26T04:59:31.249Z,6.29
2024-02-26T05:02:20.320Z,6.10
2024-02-26T05:05:02.405Z,5.99
2024-02-26T05:07:57.250Z,5.92
2024-02-26T05:10:48.272Z,5.84
2024-02-26T05:13:36.344Z,5.75
2024-02-26T05:16:17.279Z,5.65
2024-02-26T05:19:05.434Z,5.54
2024-02-26T05:21:48.237Z,5.45
2024-02-26T05:24:43.243Z,5.38
2024-02-26T05:27:32.273Z,5.37
2024-02-26T05:30:07.434Z,5.33
2024-02-26T05:32:55.285Z,5.33
2024-02-26T05:35:37.217Z,5.34
2024-02-26T05:38:32.229Z,5.41
2024-02-26T05:41:20.246Z,5.40
2024-02-26T05:44:01.527Z,5.35
2024-02-26T05:46:43.254Z,5.30
2024-02-26T05:49:24.634Z,5.27
2024-02-26T05:52:14.366Z,5.27
2024-02-26T05:54:56.259Z,5.29
2024-02-26T05:57:51.236Z,5.29
2024-02-26T06:00:39.369Z,5.36
2024-02-26T06:03:14.438Z,5.43
2024-02-26T06:06:02.365Z,5.58
2024-02-26T06:08:37.373Z,5.69
2024-02-26T06:11:26.234Z,5.83
2024-02-26T06:14:03.942Z,5.98
2024-02-26T06:16:45.238Z,6.17
2024-02-26T06:19:19.794Z,6.33
2024-02-26T06:22:08.222Z,6.55
2024-02-26T06:24:56.354Z,6.70
2024-02-26T06:27:44.299Z,6.76
2024-02-26T06:30:19.542Z,6.82
2024-02-26T06:33:07.338Z,6.89
2024-02-26T06:35:48.438Z,7.01
2024-02-26T06:38:30.226Z,7.14
2024-02-26T06:41:12.741Z,7.31
2024-02-26T06:43:54.248Z,7.51
2024-02-26T06:46:42.205Z,7.73
2024-02-26T06:49:23.289Z,7.96
2024-02-26T06:52:14.216Z,8.16
2024-02-26T06:54:50.106Z,8.28
2024-02-26T06:57:38.370Z,8.36
2024-02-26T07:00:17.997Z,8.40
2024-02-26T07:03:06.278Z,8.42
2024-02-26T07:05:47.416Z,8.44
2024-02-26T07:08:35.227Z,8.45
2024-02-26T07:11:17.277Z,8.47
2024-02-26T07:14:05.213Z,8.48
2024-02-26T07:16:39.733Z,8.50
2024-02-26T07:19:27.303Z,8.59
2024-02-26T07:22:11.356Z,8.69
2024-02-26T07:25:06.214Z,8.82
2024-02-26T07:27:54.220Z,8.97
2024-02-26T07:30:35.447Z,9.16
2024-02-26T07:33:17.424Z,9.35
2024-02-26T07:35:58.385Z,9.52
2024-02-26T07:38:43.272Z,9.65
2024-02-26T07:41:25.570Z,9.82
2024-02-26T07:44:07.243Z,9.97
2024-02-26T07:46:55.206Z,10.11
2024-02-26T07:49:29.897Z,10.25
2024-02-26T07:52:19.234Z,10.38
2024-02-26T07:54:53.773Z,10.49
2024-02-26T07:57:41.215Z,10.69
2024-02-26T08:00:18.429Z,10.88
2024-02-26T08:03:06.268Z,11.07
2024-02-26T08:05:48.348Z,11.29
2024-02-26T08:08:29.402Z,11.49
2024-02-26T08:11:10.312Z,11.59
2024-02-26T08:13:51.373Z,11.65
2024-02-26T08:16:34.168Z,11.70
2024-02-26T08:19:17.292Z,11.90
2024-02-26T08:21:58.705Z,12.15
2024-02-26T08:24:54.224Z,12.43
2024-02-26T08:27:42.262Z,12.72
2024-02-26T08:30:18.437Z,12.92
2024-02-26T08:33:06.362Z,13.16
2024-02-26T08:35:48.254Z,13.40
2024-02-26T08:38:36.215Z,13.66
2024-02-26T08:41:17.437Z,13.90
2024-02-26T08:43:59.251Z,14.16
2024-02-26T08:46:47.236Z,14.45
2024-02-26T08:49:27.116Z,14.70
2024-02-26T08:52:15.234Z,14.93
2024-02-26T08:54:50.219Z,15.12
2024-02-26T08:57:40.281Z,15.26
2024-02-26T09:00:16.892Z,15.41
2024-02-26T09:03:05.964Z,15.54
2024-02-26T09:05:48.354Z,15.62
2024-02-26T09:08:29.416Z,15.70
2024-02-26T09:11:11.200Z,15.78
2024-02-26T09:13:52.689Z,15.80
2024-02-26T09:16:34.221Z,15.82
2024-02-26T09:19:15.445Z,15.84
2024-02-26T09:21:57.216Z,15.79
2024-02-26T09:24:45.226Z,15.71
2024-02-26T09:27:43.228Z,15.57
2024-02-26T09:30:38.232Z,15.48
2024-02-26T09:33:26.334Z,15.47
2024-02-26T09:36:14.419Z,15.52
2024-02-26T09:38:56.628Z,15.55
2024-02-26T09:41:49.230Z,15.59
2024-02-26T09:44:24.174Z,15.61
2024-02-26T09:47:13.214Z,15.62
2024-02-26T09:49:49.383Z,15.52
2024-02-26T09:52:38.236Z,15.37
2024-02-26T09:55:12.778Z,15.22
2024-02-26T09:58:02.358Z,15.09
2024-02-26T10:00:47.441Z,14.98
2024-02-26T10:03:37.271Z,14.88
2024-02-26T10:06:12.955Z,14.82
2024-02-26T10:09:02.428Z,14.80
2024-02-26T10:11:38.641Z,14.81
2024-02-26T10:14:26.335Z,14.85
2024-02-26T10:17:09.233Z,14.89
2024-02-26T10:19:59.241Z,14.94
2024-02-26T10:22:33.646Z,14.96
2024-02-26T10:25:21.202Z,14.97
2024-02-26T10:28:16.218Z,15.02
2024-02-26T10:31:04.226Z,15.10
2024-02-26T10:33:43.462Z,15.23
2024-02-26T10:36:43.828Z,15.35
2024-02-26T10:39:23.564Z,15.51
2024-02-26T10:42:17.835Z,15.82
2024-02-26T10:45:00.251Z,16.10
2024-02-26T10:47:55.504Z,16.38
2024-02-26T10:50:50.271Z,16.67
2024-02-26T10:53:48.294Z,16.91
2024-02-26T10:56:37.224Z,17.09
2024-02-26T10:59:19.268Z,17.24
2024-02-26T11:02:14.235Z,17.34
2024-02-26T11:05:02.310Z,17.44
2024-02-26T11:07:38.505Z,17.50
2024-02-26T11:10:26.256Z,17.49
2024-02-26T11:13:09.188Z,17.51
2024-02-26T11:16:08.315Z,17.62
2024-02-26T11:18:57.516Z,17.82
2024-02-26T11:21:41.804Z,18.05
2024-02-26T11:24:30.311Z,18.23
2024-02-26T11:27:26.359Z,18.29
2024-02-26T11:30:18.230Z,18.25
2024-02-26T11:32:56.913Z,18.20
2024-02-26T11:35:45.322Z,18.19
2024-02-26T11:38:30.346Z,18.19
2024-02-26T11:41:18.190Z,18.19
2024-02-26T11:44:15.201Z,18.24
2024-02-26T11:47:11.326Z,18.30
2024-02-26T11:49:59.254Z,18.43
2024-02-26T11:52:34.346Z,18.49
2024-02-26T11:55:40.224Z,18.53
2024-02-26T11:58:22.310Z,18.58
2024-02-26T12:01:18.884Z,18.60
2024-02-26T12:07:16.242Z,18.66
2024-02-26T12:10:43.280Z,18.82
2024-02-26T12:13:29.727Z,18.97
2024-02-26T12:16:24.680Z,19.09
2024-02-26T12:19:14.388Z,19.16
2024-02-26T12:21:56.250Z,19.27
2024-02-26T12:24:51.205Z,19.41
2024-02-26T12:27:39.215Z,19.46
2024-02-26T12:30:14.375Z,19.60
2024-02-26T12:33:05.467Z,19.91
2024-02-26T12:35:40.745Z,20.15
2024-02-26T12:38:28.197Z,20.30
2024-02-26T12:41:04.265Z,20.36
2024-02-26T12:43:52.244Z,20.42
2024-02-26T12:46:27.342Z,20.50
2024-02-26T12:49:15.400Z,20.57
2024-02-26T12:51:50.416Z,20.69
2024-02-26T12:54:42.388Z,20.80
2024-02-26T12:57:30.323Z,20.62
2024-02-26T13:00:33.257Z,20.37
2024-02-26T13:03:22.268Z,20.09
2024-02-26T13:05:57.461Z,19.87
2024-02-26T13:08:45.205Z,19.81
2024-02-26T13:11:21.838Z,19.85
2024-02-26T13:14:10.225Z,19.76
2024-02-26T13:16:52.378Z,19.69
2024-02-26T13:19:47.361Z,19.76
2024-02-26T13:22:38.225Z,20.04
2024-02-26T13:25:20.796Z,20.33
2024-02-26T13:28:17.366Z,20.74
2024-02-26T13:30:59.513Z,21.28
2024-02-26T13:33:47.315Z,21.89
2024-02-26T13:36:29.247Z,22.41
2024-02-26T13:39:24.280Z,22.80
2024-02-26T13:42:12.211Z,23.10
2024-02-26T13:44:47.464Z,23.20
2024-02-26T13:47:35.339Z,22.99
2024-02-26T13:50:10.392Z,22.68
2024-02-26T13:53:01.243Z,22.39
2024-02-26T13:55:36.603Z,22.19
2024-02-26T13:58:25.231Z,22.06
2024-02-26T14:01:07.255Z,21.83
2024-02-26T14:04:05.521Z,21.57
2024-02-26T14:06:53.363Z,21.31
2024-02-26T14:09:33.072Z,21.15
2024-02-26T14:12:28.332Z,20.81
2024-02-26T14:15:06.457Z,20.54
2024-02-26T14:18:01.484Z,20.23
2024-02-26T14:20:36.472Z,19.80
2024-02-26T14:23:24.205Z,19.39
2024-02-26T14:25:59.433Z,19.12
2024-02-26T14:28:47.347Z,18.95
2024-02-26T14:31:33.238Z,18.78
2024-02-26T14:34:21.360Z,18.63
2024-02-26T14:37:03.218Z,18.50
2024-02-26T14:39:59.299Z,18.37
2024-02-26T14:42:48.370Z,18.24
2024-02-26T14:45:23.514Z,18.20
2024-02-26T14:48:11.264Z,18.14
2024-02-26T14:50:46.708Z,18.07
2024-02-26T14:53:35.360Z,17.92
2024-02-26T14:56:10.817Z,17.72
2024-02-26T14:58:59.228Z,17.49
2024-02-26T15:01:34.454Z,17.29
2024-02-26T15:04:22.298Z,17.05
2024-02-26T15:06:57.419Z,16.88
2024-02-26T15:09:46.220Z,16.72
2024-02-26T15:12:24.621Z,16.61
2024-02-26T15:15:08.647Z,16.51
2024-02-26T15:17:51.340Z,16.37
2024-02-26T15:20:34.233Z,16.21
2024-02-26T15:23:30.248Z,15.99
2024-02-26T15:26:25.232Z,15.75
2024-02-26T15:29:13.203Z,15.54
2024-02-26T15:31:55.295Z,15.37
2024-02-26T15:34:50.515Z,15.18
2024-02-26T15:37:38.240Z,15.02
2024-02-26T15:40:20.218Z,14.82
2024-02-26T15:43:10.993Z,14.61
2024-02-26T15:45:47.672Z,14.46
2024-02-26T15:48:35.977Z,14.32
2024-02-26T15:51:11.406Z,14.19
2024-02-26T15:54:02.019Z,14.07
2024-02-26T15:56:45.671Z,13.96
2024-02-26T15:59:40.203Z,13.83
2024-02-26T16:02:29.729Z,13.68
2024-02-26T16:05:12.209Z,13.52
2024-02-26T16:08:10.210Z,13.37
2024-02-26T16:10:58.235Z,13.20
2024-02-26T16:13:33.366Z,13.07
2024-02-26T16:16:27.290Z,12.94
2024-02-26T16:19:06.539Z,12.83
2024-02-26T16:21:55.728Z,12.71
2024-02-26T16:24:36.458Z,12.63
2024-02-26T16:27:18.223Z,12.55
2024-02-26T16:30:06.336Z,12.46
2024-02-26T16:32:43.337Z,12.38
2024-02-26T16:35:31.392Z,12.31
2024-02-26T16:38:05.713Z,12.23
2024-02-26T16:40:55.235Z,12.17
2024-02-26T16:43:29.733Z,12.09
2024-02-26T16:46:17.341Z,12.00
2024-02-26T16:48:54.282Z,11.91
2024-02-26T16:51:43.251Z,11.84
2024-02-26T16:54:19.000Z,11.77
2024-02-26T16:57:07.241Z,11.73
2024-02-26T16:59:49.248Z,11.70
2024-02-26T17:02:30.356Z,11.67
2024-02-26T17:05:11.297Z,11.64
2024-02-26T17:07:52.347Z,11.60
2024-02-26T17:10:40.585Z,11.57
2024-02-26T17:13:15.425Z,11.52
2024-02-26T17:16:03.355Z,11.48
2024-02-26T17:18:38.748Z,11.44
2024-02-26T17:21:32.243Z,11.39
2024-02-26T17:24:14.276Z,11.35
2024-02-26T17:27:09.268Z,11.31
2024-02-26T17:29:57.242Z,11.28
2024-02-26T17:32:33.578Z,11.24
2024-02-26T17:35:23.226Z,11.23
2024-02-26T17:38:03.146Z,11.23
2024-02-26T17:40:51.283Z,11.22
2024-02-26T17:43:26.355Z,11.22
2024-02-26T17:46:15.246Z,11.20
2024-02-26T17:48:50.527Z,11.17
2024-02-26T17:51:38.219Z,11.15
2024-02-26T17:54:13.486Z,11.11
2024-02-26T17:57:03.536Z,11.08
2024-02-26T17:59:45.368Z,11.04
2024-02-26T18:02:27.202Z,11.02
2024-02-26T18:05:15.324Z,10.99
2024-02-26T18:07:49.720Z,10.97
2024-02-26T18:10:38.276Z,10.93
2024-02-26T18:13:19.204Z,10.91
2024-02-26T18:16:07.233Z,10.89
2024-02-26T18:18:41.908Z,10.85
2024-02-26T18:21:32.300Z,10.82
2024-02-26T18:24:13.242Z,10.78
2024-02-26T18:27:08.264Z,10.74
2024-02-26T18:29:56.303Z,10.70
2024-02-26T18:32:38.254Z,10.66
2024-02-26T18:35:33.265Z,10.64
2024-02-26T18:38:22.298Z,10.62
2024-02-26T18:41:04.232Z,10.60
2024-02-26T18:43:59.205Z,10.58
2024-02-26T18:46:53.212Z,10.55
2024-02-26T18:49:37.703Z,10.53
2024-02-26T18:52:26.208Z,10.50
2024-02-26T18:55:01.471Z,10.47
2024-02-26T18:57:49.275Z,10.44
2024-02-26T19:00:24.588Z,10.40
2024-02-26T19:03:16.644Z,10.39
2024-02-26T19:05:58.431Z,10.36
2024-02-26T19:08:40.221Z,10.36
2024-02-26T19:11:29.301Z,10.34
2024-02-26T19:14:05.063Z,10.34
2024-02-26T19:16:56.198Z,10.32
2024-02-26T19:19:32.434Z,10.30
2024-02-26T19:22:20.235Z,10.29
2024-02-26T19:24:54.757Z,10.28
2024-02-26T19:27:44.275Z,10.27
2024-02-26T19:30:19.175Z,10.28
2024-02-26T19:33:11.879Z,10.29
2024-02-26T19:35:49.703Z,10.31
2024-02-26T19:38:39.689Z,10.33
2024-02-26T19:41:24.308Z,10.35
2024-02-26T19:44:12.403Z,10.39
2024-02-26T19:46:59.051Z,10.44
2024-02-26T19:49:42.266Z,10.48
2024-02-26T19:52:28.320Z,10.52
2024-02-26T19:55:13.718Z,10.58
2024-02-26T19:58:02.572Z,10.66
2024-02-26T20:00:45.391Z,10.74
2024-02-26T20:03:37.260Z,10.81
2024-02-26T20:06:20.976Z,10.89
2024-02-26T20:09:11.100Z,10.95
2024-02-26T20:11:50.428Z,11.01
2024-02-26T20:14:38.370Z,11.05
2024-02-26T20:17:23.208Z,11.08
2024-02-26T20:20:14.644Z,11.14
2024-02-26T20:22:49.405Z,11.22
2024-02-26T20:25:31.362Z,11.29
2024-02-26T20:28:21.147Z,11.35
2024-02-26T20:31:17.208Z,11.42
2024-02-26T20:34:06.374Z,11.48
2024-02-26T20:36:48.469Z,11.51
2024-02-26T20:39:44.736Z,11.50
2024-02-26T20:42:34.281Z,11.47
2024-02-26T20:45:18.283Z,11.43
2024-02-26T20:48:06.304Z,11.37
2024-02-26T20:50:55.572Z,11.32
2024-02-26T20:53:31.096Z,11.27
2024-02-26T20:56:21.182Z,11.23
2024-02-26T20:59:03.198Z,11.21
2024-02-26T21:01:45.411Z,11.17
2024-02-26T21:04:27.335Z,11.13
2024-02-26T21:07:16.178Z,11.08
2024-02-26T21:09:53.283Z,10.97
2024-02-26T21:12:42.261Z,10.85
2024-02-26T21:15:24.261Z,10.72
2024-02-26T21:18:06.022Z,10.61
2024-02-26T21:20:47.168Z,10.50
2024-02-26T21:23:28.383Z,10.42
2024-02-26T21:26:10.210Z,10.39
2024-02-26T21:28:51.663Z,10.35
2024-02-26T21:31:35.212Z,10.28
2024-02-26T21:34:18.565Z,10.22
2024-02-26T21:37:00.200Z,10.18
2024-02-26T21:39:43.919Z,10.09
2024-02-26T21:42:25.206Z,10.01
2024-02-26T21:45:06.475Z,9.94
2024-02-26T21:47:48.297Z,9.84
2024-02-26T21:50:31.601Z,9.75
2024-02-26T21:53:13.368Z,9.71
2024-02-26T21:56:01.220Z,9.70
2024-02-26T21:58:35.792Z,9.72
2024-02-26T22:01:24.310Z,9.76
2024-02-26T22:03:58.771Z,9.80
2024-02-26T22:06:48.708Z,9.80
2024-02-26T22:09:25.110Z,9.75
2024-02-26T22:12:15.054Z,9.70
2024-02-26T22:14:58.182Z,9.66
2024-02-26T22:17:41.942Z,9.65
2024-02-26T22:20:24.532Z,9.67
2024-02-26T22:23:07.511Z,9.68
2024-02-26T22:25:51.323Z,9.71
2024-02-26T22:28:47.326Z,9.71
2024-02-26T22:31:47.131Z,9.73
2024-02-26T22:34:38.735Z,9.75
2024-02-26T22:37:23.277Z,9.78
2024-02-26T22:40:14.258Z,9.82
2024-02-26T22:42:56.284Z,9.85
2024-02-26T22:45:53.328Z,9.90
2024-02-26T22:48:51.010Z,9.91
2024-02-26T22:51:41.533Z,9.92
2024-02-26T22:54:17.661Z,9.92
2024-02-26T22:57:06.192Z,9.92
2024-02-26T22:59:48.178Z,9.95
2024-02-26T23:02:36.215Z,9.96
2024-02-26T23:05:21.514Z,9.95
2024-02-26T23:08:18.719Z,9.92
2024-02-26T23:11:09.473Z,9.86
2024-02-26T23:13:45.430Z,9.75
2024-02-26T23:16:35.182Z,9.64
2024-02-26T23:19:10.775Z,9.51
2024-02-26T23:22:00.249Z,9.40
2024-02-26T23:24:42.268Z,9.33
2024-02-26T23:27:37.218Z,9.26
2024-02-26T23:30:32.181Z,9.24
2024-02-26T23:33:20.319Z,9.27
2024-02-26T23:35:55.337Z,9.30
2024-02-26T23:38:43.334Z,9.33
2024-02-26T23:41:18.302Z,9.36
2024-02-26T23:44:06.176Z,9.38
2024-02-26T23:46:41.384Z,9.36
2024-02-26T23:49:29.168Z,9.31
2024-02-26T23:52:11.178Z,9.27
2024-02-26T23:55:06.180Z,9.22
2024-02-26T23:57:54.175Z,9.16
